Flight Track Log - Related Links

Times and Time Zones

All times are in EST time to prevent confusion due to time zone crossing. See the AFL150 flight status page for this flight to view local times or setup timezone preferences in your user account.

Time Position Orientation Groundspeed Altitude Reporting Facility
EST Latitude Longitude Course Direction KTS MPH feet Rate Location/Type
Fri 05:07:00 AM 56.0774 37.1561 319° Northwest  Level FlightAware Approximate
Fri 05:08:00 AM 56.1661 37.0171 319° Northwest  Level FlightAware Approximate
Fri 05:09:00 AM 56.2546 36.8774 319° Northwest  Level FlightAware Approximate
Fri 05:10:00 AM 56.3430 36.7371 319° Northwest  Level FlightAware Approximate
Fri 05:11:00 AM 56.4312 36.5961 319° Northwest  Level FlightAware Approximate
Fri 05:12:00 AM 56.5193 36.4545 318° Northwest  Level FlightAware Approximate
Fri 05:13:00 AM 56.6072 36.3122 318° Northwest  Level FlightAware Approximate
Fri 05:14:00 AM 56.6949 36.1693 318° Northwest  Level FlightAware Approximate
Fri 05:15:00 AM 56.7824 36.0256 318° Northwest  Level FlightAware Approximate
Fri 05:16:00 AM 56.8698 35.8814 318° Northwest  Level FlightAware Approximate
Fri 05:17:00 AM 56.9571 35.7364 318° Northwest  Level FlightAware Approximate
Fri 05:18:00 AM 57.0441 35.5908 318° Northwest  Level FlightAware Approximate
Fri 05:19:00 AM 57.1310 35.4444 318° Northwest  Level FlightAware Approximate
Fri 05:20:00 AM 57.2177 35.2974 317° Northwest  Level FlightAware Approximate
Fri 05:21:00 AM 57.3043 35.1497 317° Northwest  Level FlightAware Approximate
Fri 05:22:00 AM 57.3907 35.0013 317° Northwest  Level FlightAware Approximate
Fri 05:23:00 AM 57.4769 34.8522 317° Northwest  Level FlightAware Approximate
Fri 05:24:00 AM 57.5629 34.7024 317° Northwest  Level FlightAware Approximate
Fri 05:25:00 AM 57.6487 34.5519 317° Northwest  Level FlightAware Approximate
Fri 05:26:00 AM 57.6524 34.5299 313° West  Level FlightAware Approximate
Fri 05:27:00 AM 57.7331 34.3693 313° West  Level FlightAware Approximate
Fri 05:28:00 AM 57.8135 34.2080 313° West  Level FlightAware Approximate
Fri 05:29:00 AM 57.8937 34.0460 313° West  Level FlightAware Approximate
Fri 05:30:00 AM 57.9738 33.8832 313° West  Level FlightAware Approximate
Fri 05:31:00 AM 58.0536 33.7197 313° West  Level FlightAware Approximate
Fri 05:32:00 AM 58.1332 33.5555 313° West  Level FlightAware Approximate
Fri 05:33:00 AM 58.2127 33.3907 313° West  Level FlightAware Approximate
Fri 05:34:00 AM 58.2926 33.2262 313° West  Level FlightAware Approximate
Fri 05:35:00 AM 58.3722 33.0610 313° West  Level FlightAware Approximate
Fri 05:35:20 AM 56.4994 31.7669 313° West 426 490 34,000  Level FlightAware ADS-B
Fri 05:37:24 AM 56.5337 31.3322 302° West 425 489 34,000  Level FlightAware ADS-B
Fri 05:38:26 AM 56.5644 31.1217 285° West 420 483 34,000  Level FlightAware ADS-B
Fri 05:39:25 AM 56.6165 30.9419 298° West 421 484 34,000  Level FlightAware ADS-B
Fri 05:40:25 AM 56.6895 30.7792 309° West 423 487 34,000  Level FlightAware ADS-B
Fri 05:41:26 AM 56.7618 30.5999 306° West 423 487 34,000  Level FlightAware ADS-B
Fri 05:42:25 AM 56.8261 30.4297 305° West 425 489 34,000  Level FlightAware ADS-B
Fri 05:43:25 AM 56.8935 30.2470 304° West 427 491 34,000  Level FlightAware ADS-B
Fri 05:44:24 AM 56.9511 30.0899 304° West 428 493 34,000  Level FlightAware ADS-B
Fri 05:45:26 AM 57.0185 29.9048 304° West 429 494 34,000  Level FlightAware ADS-B
Fri 05:46:23 AM 57.0867 29.7160 304° West 430 495 34,000  Level FlightAware ADS-B
Fri 05:47:26 AM 57.1568 29.5200 303° West 430 495 34,000  Level FlightAware ADS-B
Fri 05:48:25 AM 57.2209 29.3394 303° West 430 495 34,000  Level FlightAware ADS-B
Fri 05:49:25 AM 57.2866 29.1531 303° West 432 497 34,000  Level FlightAware ADS-B
Fri 05:50:25 AM 57.3469 28.9811 303° West 431 496 34,000  Level FlightAware ADS-B
Fri 05:51:25 AM 57.4163 28.7819 303° West 431 496 34,000  Level FlightAware ADS-B
Fri 05:52:25 AM 57.4804 28.5960 303° West 432 497 34,000  Level FlightAware ADS-B
Fri 05:53:26 AM 57.5446 28.4082 303° West 432 497 34,000  Level FlightAware ADS-B
Fri 05:54:25 AM 57.6066 28.2257 302° West 431 496 34,000  Level FlightAware ADS-B
Fri 05:55:24 AM 57.6678 28.0443 302° West 434 499 34,000  Level FlightAware ADS-B
Fri 05:56:25 AM 57.7344 27.8456 302° West 435 501 34,000  Level FlightAware ADS-B
Fri 05:57:25 AM 57.7990 27.6509 302° West 435 501 34,000  Level FlightAware ADS-B
Fri 05:58:25 AM 57.8530 27.4503 297° West 436 502 34,000  Level FlightAware ADS-B
Fri 05:59:25 AM 57.8939 27.2382 290° West 440 506 34,000  Level FlightAware ADS-B
Fri 06:00:25 AM 57.9344 27.0242 290° West 439 505 34,000  Level FlightAware ADS-B
Fri 06:01:25 AM 57.9750 26.8066 290° West 440 506 34,000  Level FlightAware ADS-B
Fri 06:02:24 AM 58.0146 26.5930 289° West 439 505 34,000  Level FlightAware ADS-B
Fri 06:03:24 AM 58.0544 26.3761 289° West 441 507 34,000  Level FlightAware ADS-B
Fri 06:04:25 AM 58.0947 26.1527 289° West 442 509 34,000  Level FlightAware ADS-B
Fri 06:05:25 AM 58.1329 25.9394 289° West 440 506 34,000  Level FlightAware ADS-B
Fri 06:06:25 AM 58.1721 25.7177 289° West 442 509 34,000  Level FlightAware ADS-B
Fri 06:07:26 AM 58.2108 25.4955 288° West 442 509 34,000  Level FlightAware ADS-B
Fri 06:08:25 AM 58.2484 25.2770 288° West 442 509 34,000  Level FlightAware ADS-B
Fri 06:09:24 AM 58.2780 25.1037 288° West 442 509 34,000  Level FlightAware ADS-B
Fri 06:10:24 AM 58.3228 24.8381 288° West 442 509 34,000  Level FlightAware ADS-B
Fri 06:27:03 AM 58.9007 21.0539 294° West 452 520 34,000  Level FlightAware ADS-B
Fri 06:28:23 AM 58.9161 20.9625 288° West 450 518 34,000  Level FlightAware ADS-B
Fri 06:29:54 AM 59.0094 20.3922 288° West 449 517 34,000  Level FlightAware ADS-B
Fri 06:30:35 AM 59.0326 20.2481 287° West 449 517 34,000  Level FlightAware ADS-B
Fri 06:31:15 AM 59.0584 20.0856 287° West 451 519 34,000  Level FlightAware ADS-B
Fri 06:31:55 AM 59.0830 19.9286 287° West 449 517 34,000  Level FlightAware ADS-B
Fri 06:32:34 AM 59.1067 19.7765 287° West 449 517 34,000  Level FlightAware ADS-B
Fri 06:33:14 AM 59.1306 19.6222 287° West 451 519 34,000  Level FlightAware ADS-B
Fri 06:33:53 AM 59.1537 19.4715 287° West 452 520 34,000  Level FlightAware ADS-B
Fri 06:34:34 AM 59.1771 19.3178 287° West 452 520 34,000  Level FlightAware ADS-B
Fri 06:35:14 AM 59.2018 19.1536 286° West 452 520 34,000  Level FlightAware ADS-B
Fri 06:36:14 AM 59.2362 18.9218 286° West 453 521 34,000  Level FlightAware ADS-B
Fri 06:36:54 AM 59.2582 18.7720 286° West 455 524 34,000  Level FlightAware ADS-B
Fri 06:37:33 AM 59.2815 18.6126 286° West 455 524 34,000  Level FlightAware ADS-B
Fri 06:38:14 AM 59.3037 18.4566 286° West 456 525 34,000  Level FlightAware ADS-B
Fri 06:38:54 AM 59.3270 18.2937 286° West 455 524 34,000  Level FlightAware ADS-B
Fri 06:39:32 AM 59.3488 18.1400 286° West 455 524 34,000  Level FlightAware ADS-B
Fri 06:40:34 AM 59.3825 17.8993 285° West 457 526 34,000  Level FlightAware ADS-B
Fri 06:41:13 AM 59.4035 17.7457 285° West 459 528 34,000  Level FlightAware ADS-B
Fri 06:41:54 AM 59.4264 17.5778 285° West 459 528 34,000  Level FlightAware ADS-B
Fri 06:42:34 AM 59.4441 17.4478 285° West 457 526 34,000  Level FlightAware ADS-B
Fri 06:43:12 AM 59.4683 17.2663 285° West 456 525 34,000  Level FlightAware ADS-B
Fri 06:43:54 AM 59.4901 17.1019 285° West 455 524 34,000  Level FlightAware ADS-B
Fri 06:44:34 AM 59.5101 16.9493 285° West 457 526 34,000  Level FlightAware ADS-B
Fri 06:45:15 AM 59.5317 16.7820 284° West 458 527 34,000  Level FlightAware ADS-B
Fri 06:45:54 AM 59.5530 16.6155 284° West 460 529 34,000  Level FlightAware ADS-B
Fri 06:46:34 AM 59.5743 16.4462 284° West 463 533 34,000  Level FlightAware ADS-B
Fri 06:47:13 AM 59.5940 16.2890 284° West 465 535 34,000  Level FlightAware ADS-B
Fri 06:47:54 AM 59.6147 16.1216 284° West 466 536 34,000  Level FlightAware ADS-B
Fri 06:48:34 AM 59.6348 15.9581 284° West 465 535 34,000  Level FlightAware ADS-B
Fri 06:50:12 AM 59.6834 15.5535 284° West 466 536 34,000 61 Level FlightAware ADS-B
Fri 07:21:09 AM 60.6552 7.5991 283° West 478 550 36,000 63 Climbing FlightAware ADS-B (EGBP)
Fri 07:21:47 AM 60.6728 7.4285 282° West 477 549 36,000  Level FlightAware ADS-B (EGBP)
Fri 07:22:28 AM 60.6905 7.2544 282° West 478 550 36,000  Level FlightAware ADS-B (EGBP)
Fri 07:23:06 AM 60.7076 7.0825 282° West 479 551 36,000  Level FlightAware ADS-B (EGBP)
Fri 07:23:56 AM 60.7293 6.8630 282° West 478 550 36,000  Level FlightAware ADS-B (EGBP)
Fri 07:24:36 AM 60.7467 6.6839 281° West 477 549 36,000  Level FlightAware ADS-B (EGBP)
Fri 07:25:17 AM 60.7635 6.5073 281° West 478 550 36,000  Level FlightAware ADS-B (EGBP)
Fri 07:25:47 AM 60.7762 6.3711 281° West 480 552 36,000  Level FlightAware ADS-B (EGBP)
Fri 07:26:27 AM 60.7931 6.1904 281° West 482 555 36,000  Level FlightAware ADS-B (EGBP)
Fri 07:27:04 AM 60.8082 6.0251 281° West 484 557 36,000  Level FlightAware ADS-B (EGBP)
Fri 07:27:48 AM 60.8260 5.8271 281° West 486 559 36,000  Level FlightAware ADS-B (EGBP)
Fri 07:28:25 AM 60.8408 5.6604 280° West 486 559 36,000  Level FlightAware ADS-B (EGBP)
Fri 07:30:00 AM 60.8729 5.2832 280° West  Level Estimated
Fri 07:31:00 AM 60.8926 5.0445 280° West  Level Estimated
Fri 07:32:00 AM 60.9118 4.8056 280° West  Level Estimated
Fri 07:33:00 AM 60.9307 4.5664 279° West  Level Estimated
Fri 07:34:00 AM 60.9491 4.3269 279° West  Level Estimated
Fri 07:35:00 AM 60.9671 4.0872 279° West  Level Estimated
Fri 07:36:00 AM 60.9847 3.8471 279° West  Level Estimated
Fri 07:37:00 AM 61.0018 3.6068 278° West  Level Estimated
Fri 07:38:00 AM 61.0185 3.3663 278° West  Level Estimated
Fri 07:39:00 AM 61.0348 3.1254 278° West  Level Estimated
Fri 07:40:00 AM 61.0507 2.8844 278° West  Level Estimated
Fri 07:41:00 AM 61.0661 2.6431 278° West  Level Estimated
Fri 07:42:00 AM 61.0811 2.4016 277° West  Level Estimated
Fri 07:43:00 AM 61.0957 2.1598 277° West  Level Estimated
Fri 07:44:00 AM 61.1098 1.9179 277° West  Level Estimated
Fri 07:45:00 AM 61.1235 1.6757 277° West  Level Estimated
Fri 07:46:00 AM 61.1368 1.4333 277° West  Level Estimated
Fri 07:47:00 AM 61.1496 1.1908 276° West  Level Estimated
Fri 07:48:00 AM 61.1620 0.9480 276° West  Level Estimated
Fri 07:49:00 AM 61.1740 0.7050 276° West  Level Estimated
Fri 07:50:00 AM 61.1855 0.4618 276° West  Level Estimated
Fri 07:51:00 AM 61.1966 0.2185 276° West  Level Estimated
Fri 07:52:00 AM 61.2072 -0.0250 275° West  Level Estimated
Fri 07:53:00 AM 61.2175 -0.2686 275° West  Level Estimated
Fri 07:54:00 AM 61.2272 -0.5124 275° West  Level Estimated
Fri 07:55:00 AM 61.2366 -0.7564 275° West  Level Estimated
Fri 07:56:00 AM 61.2455 -1.0005 274° West  Level Estimated
Fri 07:57:00 AM 61.2540 -1.2447 274° West  Level Estimated
Fri 07:58:00 AM 61.2620 -1.4891 274° West  Level Estimated
Fri 07:59:00 AM 61.2696 -1.7335 274° West  Level Estimated
Fri 08:00:00 AM 61.2767 -1.9781 274° West  Level Estimated
Fri 08:01:00 AM 61.2834 -2.2228 273° West  Level Estimated
Fri 08:02:00 AM 61.2897 -2.4676 273° West  Level Estimated
Fri 08:03:00 AM 61.2955 -2.7125 273° West  Level Estimated
Fri 08:04:00 AM 61.3009 -2.9575 273° West  Level Estimated
Fri 08:05:00 AM 61.3059 -3.2026 273° West  Level Estimated
Fri 08:06:00 AM 61.3104 -3.4477 272° West  Level Estimated
Fri 08:07:00 AM 61.3144 -3.6930 272° West  Level Estimated
Fri 08:08:00 AM 61.3181 -3.9382 272° West  Level Estimated
Fri 08:09:00 AM 61.3212 -4.1835 272° West  Level Estimated
Fri 08:10:00 AM 61.3240 -4.4289 271° West  Level Estimated
Fri 08:11:00 AM 61.3262 -4.6743 271° West  Level Estimated
Fri 08:12:00 AM 61.3281 -4.9198 271° West  Level Estimated
Fri 08:13:00 AM 61.3295 -5.1652 271° West  Level Estimated
Fri 08:14:00 AM 61.3305 -5.4107 271° West  Level Estimated
Fri 08:15:00 AM 61.3310 -5.6562 270° West  Level Estimated
Fri 08:16:00 AM 61.3311 -5.9017 270° West  Level Estimated
Fri 08:17:00 AM 61.3307 -6.1472 270° West  Level Estimated
Fri 08:18:00 AM 61.3299 -6.3927 270° West  Level Estimated
Fri 08:19:00 AM 61.3287 -6.6382 269° West  Level Estimated
Fri 08:20:00 AM 61.3270 -6.8836 269° West  Level Estimated
Fri 08:21:00 AM 61.3248 -7.1290 269° West  Level Estimated
Fri 08:22:00 AM 61.3222 -7.3744 269° West  Level Estimated
Fri 08:23:00 AM 61.3192 -7.6198 269° West  Level Estimated
Fri 08:24:00 AM 61.3158 -7.8650 268° West  Level Estimated
Fri 08:25:00 AM 61.3119 -8.1103 268° West  Level Estimated
Fri 08:26:00 AM 61.3075 -8.3554 268° West  Level Estimated
Fri 08:27:00 AM 61.3027 -8.6005 268° West  Level Estimated
Fri 08:28:00 AM 61.2975 -8.8455 268° West  Level Estimated
Fri 08:29:00 AM 61.2918 -9.0905 267° West  Level Estimated
Fri 08:30:00 AM 61.2857 -9.3353 267° West  Level Estimated
Fri 08:31:00 AM 61.2792 -9.5801 267° West  Level Estimated
Fri 08:32:00 AM 61.2722 -9.8247 267° West  Level Estimated
Fri 08:33:00 AM 61.2647 -10.0692 266° West  Level Estimated
Fri 08:34:00 AM 61.2569 -10.3136 266° West  Level Estimated
Fri 08:35:00 AM 61.2486 -10.5579 266° West  Level Estimated
Fri 08:36:00 AM 61.2398 -10.8020 266° West  Level Estimated
Fri 08:37:00 AM 61.2306 -11.0460 266° West  Level Estimated
Fri 08:38:00 AM 61.2210 -11.2899 265° West  Level Estimated
Fri 08:39:00 AM 61.2109 -11.5336 265° West  Level Estimated
Fri 08:40:00 AM 61.2004 -11.7772 265° West  Level Estimated
Fri 08:41:00 AM 61.1895 -12.0205 265° West  Level Estimated
Fri 08:42:00 AM 61.1781 -12.2638 265° West  Level Estimated
Fri 08:43:00 AM 61.1663 -12.5068 264° West  Level Estimated
Fri 08:44:00 AM 61.1540 -12.7496 264° West  Level Estimated
Fri 08:45:00 AM 61.1414 -12.9923 264° West  Level Estimated
Fri 08:46:00 AM 61.1282 -13.2347 264° West  Level Estimated
Fri 08:47:00 AM 61.1147 -13.4770 264° West  Level Estimated
Fri 08:48:00 AM 61.1007 -13.7190 263° West  Level Estimated
Fri 08:49:00 AM 61.0863 -13.9608 263° West  Level Estimated
Fri 08:50:00 AM 61.0714 -14.2024 263° West  Level Estimated
Fri 08:51:00 AM 61.0562 -14.4438 263° West  Level Estimated
Fri 08:52:00 AM 61.0405 -14.6849 262° West  Level Estimated
Fri 08:53:00 AM 61.0243 -14.9258 262° West  Level Estimated
Fri 08:54:00 AM 61.0078 -15.1665 262° West  Level Estimated
Fri 08:55:00 AM 60.9908 -15.4069 262° West  Level Estimated
Fri 08:56:00 AM 60.9734 -15.6470 262° West  Level Estimated
Fri 08:57:00 AM 60.9555 -15.8869 261° West  Level Estimated
Fri 08:58:00 AM 60.9372 -16.1264 261° West  Level Estimated
Fri 08:59:00 AM 60.9185 -16.3658 261° West  Level Estimated
Fri 09:00:00 AM 60.8994 -16.6048 261° West  Level Estimated
Fri 09:01:00 AM 60.8799 -16.8435 261° West  Level Estimated
Fri 09:02:00 AM 60.8599 -17.0820 260° West  Level Estimated
Fri 09:03:00 AM 60.8395 -17.3201 260° West  Level Estimated
Fri 09:04:00 AM 60.8187 -17.5579 260° West  Level Estimated
Fri 09:05:00 AM 60.7975 -17.7955 260° West  Level Estimated
Fri 09:06:00 AM 60.7758 -18.0327 260° West  Level Estimated
Fri 09:07:00 AM 60.7537 -18.2696 259° West  Level Estimated
Fri 09:08:00 AM 60.7313 -18.5061 259° West  Level Estimated
Fri 09:09:00 AM 60.7084 -18.7423 259° West  Level Estimated
Fri 09:10:00 AM 60.6851 -18.9782 259° West  Level Estimated
Fri 09:11:00 AM 60.6613 -19.2138 258° West  Level Estimated
Fri 09:12:00 AM 60.6372 -19.4489 258° West  Level Estimated
Fri 09:13:00 AM 60.6126 -19.6838 258° West  Level Estimated
Fri 09:14:00 AM 60.5877 -19.9182 258° West  Level Estimated
Fri 09:15:00 AM 60.5623 -20.1523 258° West  Level Estimated
Fri 09:16:00 AM 60.5365 -20.3861 257° West  Level Estimated
Fri 09:17:00 AM 60.5103 -20.6194 257° West  Level Estimated
Fri 09:18:00 AM 60.4837 -20.8524 257° West  Level Estimated
Fri 09:19:00 AM 60.4567 -21.0850 257° West  Level Estimated
Fri 09:20:00 AM 60.4293 -21.3172 257° West  Level Estimated
Fri 09:21:00 AM 60.4015 -21.5490 256° West  Level Estimated
Fri 09:22:00 AM 60.3733 -21.7805 256° West  Level Estimated
Fri 09:23:00 AM 60.3447 -22.0115 256° West  Level Estimated
Fri 09:24:00 AM 60.3157 -22.2421 256° West  Level Estimated
Fri 09:25:00 AM 60.2863 -22.4723 256° West  Level Estimated
Fri 09:26:00 AM 60.2565 -22.7020 255° West  Level Estimated
Fri 09:27:00 AM 60.2263 -22.9314 255° West  Level Estimated
Fri 09:28:00 AM 60.1957 -23.1603 255° West  Level Estimated
Fri 09:29:00 AM 60.1647 -23.3888 255° West  Level Estimated
Fri 09:30:00 AM 60.1333 -23.6169 255° West  Level Estimated
Fri 09:31:00 AM 60.1015 -23.8445 254° West  Level Estimated
Fri 09:32:00 AM 60.0693 -24.0717 254° West  Level Estimated
Fri 09:33:00 AM 60.0368 -24.2985 254° West  Level Estimated
Fri 09:34:00 AM 60.0038 -24.5247 254° West  Level Estimated
Fri 09:35:00 AM 59.9705 -24.7506 254° West  Level Estimated
Fri 09:36:00 AM 59.9368 -24.9760 253° West  Level Estimated
Fri 09:37:00 AM 59.9027 -25.2009 253° West  Level Estimated
Fri 09:38:00 AM 59.8682 -25.4253 253° West  Level Estimated
Fri 09:39:00 AM 59.8334 -25.6493 253° West  Level Estimated
Fri 09:40:00 AM 59.7981 -25.8729 253° West  Level Estimated
Fri 09:41:00 AM 59.7625 -26.0959 252° West  Level Estimated
Fri 09:42:00 AM 59.7265 -26.3185 252° West  Level Estimated
Fri 09:43:00 AM 59.6901 -26.5406 252° West  Level Estimated
Fri 09:44:00 AM 59.6534 -26.7622 252° West  Level Estimated
Fri 09:45:00 AM 59.6163 -26.9833 252° West  Level Estimated
Fri 09:46:00 AM 59.5788 -27.2039 252° West  Level Estimated
Fri 09:47:00 AM 59.5409 -27.4240 251° West  Level Estimated
Fri 09:48:00 AM 59.5027 -27.6437 251° West  Level Estimated
Fri 09:49:00 AM 59.4641 -27.8628 251° West  Level Estimated
Fri 09:50:00 AM 59.4251 -28.0814 251° West  Level Estimated
Fri 09:51:00 AM 59.3858 -28.2996 251° West  Level Estimated
Fri 09:52:00 AM 59.3461 -28.5172 250° West  Level Estimated
Fri 09:53:00 AM 59.3060 -28.7343 250° West  Level Estimated
Fri 09:54:00 AM 59.2656 -28.9509 250° West  Level Estimated
Fri 09:55:00 AM 59.2249 -29.1670 250° West  Level Estimated
Fri 09:56:00 AM 59.1837 -29.3825 250° West  Level Estimated
Fri 09:57:00 AM 59.1423 -29.5976 249° West  Level Estimated
Fri 09:58:00 AM 59.1004 -29.8121 249° West  Level Estimated
Fri 09:59:00 AM 59.0582 -30.0261 249° West  Level Estimated
Fri 10:00:00 AM 59.0157 -30.2396 249° West  Level Estimated
Fri 10:01:00 AM 58.9728 -30.4525 249° West  Level Estimated
Fri 10:02:00 AM 58.9296 -30.6649 249° West  Level Estimated
Fri 10:03:00 AM 58.8860 -30.8768 248° West  Level Estimated
Fri 10:04:00 AM 58.8420 -31.0881 248° West  Level Estimated
Fri 10:05:00 AM 58.7978 -31.2989 248° West  Level Estimated
Fri 10:06:00 AM 58.7531 -31.5092 248° West  Level Estimated
Fri 10:07:00 AM 58.7082 -31.7189 248° West  Level Estimated
Fri 10:08:00 AM 58.6629 -31.9281 247° West  Level Estimated
Fri 10:09:00 AM 58.6172 -32.1367 247° West  Level Estimated
Fri 10:10:00 AM 58.5713 -32.3448 247° West  Level Estimated
Fri 10:11:00 AM 58.5249 -32.5524 247° West  Level Estimated
Fri 10:12:00 AM 58.4783 -32.7593 247° West  Level Estimated
Fri 10:13:00 AM 58.4313 -32.9658 247° West  Level Estimated
Fri 10:14:00 AM 58.3840 -33.1717 246° West  Level Estimated
Fri 10:15:00 AM 58.3364 -33.3770 246° West  Level Estimated
Fri 10:16:00 AM 58.2884 -33.5818 246° West  Level Estimated
Fri 10:17:00 AM 58.2401 -33.7860 246° West  Level Estimated
Fri 10:18:00 AM 58.1915 -33.9897 246° West  Level Estimated
Fri 10:19:00 AM 58.1426 -34.1928 246° West  Level Estimated
Fri 10:20:00 AM 58.0933 -34.3953 245° Southwest  Level Estimated
Fri 10:21:00 AM 58.0437 -34.5973 245° Southwest  Level Estimated
Fri 10:22:00 AM 57.9938 -34.7988 245° Southwest  Level Estimated
Fri 10:23:00 AM 57.9436 -34.9996 245° Southwest  Level Estimated
Fri 10:24:00 AM 57.8931 -35.1999 245° Southwest  Level Estimated
Fri 10:25:00 AM 57.8422 -35.3997 245° Southwest  Level Estimated
Fri 10:26:00 AM 57.7910 -35.5988 244° Southwest  Level Estimated
Fri 10:27:00 AM 57.7396 -35.7974 244° Southwest  Level Estimated
Fri 10:28:00 AM 57.6878 -35.9955 244° Southwest  Level Estimated
Fri 10:29:00 AM 57.6357 -36.1929 244° Southwest  Level Estimated
Fri 10:30:00 AM 57.5833 -36.3898 244° Southwest  Level Estimated
Fri 10:31:00 AM 57.5306 -36.5862 243° Southwest  Level Estimated
Fri 10:32:00 AM 57.4776 -36.7820 243° Southwest  Level Estimated
Fri 10:33:00 AM 57.4243 -36.9771 243° Southwest  Level Estimated
Fri 10:34:00 AM 57.3706 -37.1718 243° Southwest  Level Estimated
Fri 10:35:00 AM 57.3167 -37.3658 243° Southwest  Level Estimated
Fri 10:36:00 AM 57.2625 -37.5593 243° Southwest  Level Estimated
Fri 10:37:00 AM 57.2080 -37.7523 243° Southwest  Level Estimated
Fri 10:38:00 AM 57.1532 -37.9446 242° Southwest  Level Estimated
Fri 10:39:00 AM 57.0981 -38.1364 242° Southwest  Level Estimated
Fri 10:40:00 AM 57.0427 -38.3276 242° Southwest  Level Estimated
Fri 10:41:00 AM 56.9870 -38.5182 242° Southwest  Level Estimated
Fri 10:42:00 AM 56.9311 -38.7083 242° Southwest  Level Estimated
Fri 10:43:00 AM 56.8748 -38.8978 242° Southwest  Level Estimated
Fri 10:44:00 AM 56.8183 -39.0867 241° Southwest  Level Estimated
Fri 10:45:00 AM 56.7615 -39.2751 241° Southwest  Level Estimated
Fri 10:46:00 AM 56.7044 -39.4628 241° Southwest  Level Estimated
Fri 10:47:00 AM 56.6470 -39.6501 241° Southwest  Level Estimated
Fri 10:48:00 AM 56.5893 -39.8367 241° Southwest  Level Estimated
Fri 10:49:00 AM 56.5313 -40.0228 241° Southwest  Level Estimated
Fri 10:50:00 AM 56.4731 -40.2083 240° Southwest  Level Estimated
Fri 10:51:00 AM 56.4146 -40.3932 240° Southwest  Level Estimated
Fri 10:52:00 AM 56.3559 -40.5776 240° Southwest  Level Estimated
Fri 10:53:00 AM 56.2968 -40.7614 240° Southwest  Level Estimated
Fri 10:54:00 AM 56.2375 -40.9446 240° Southwest  Level Estimated
Fri 10:55:00 AM 56.1779 -41.1273 240° Southwest  Level Estimated
Fri 10:56:00 AM 56.1180 -41.3093 240° Southwest  Level Estimated
Fri 10:57:00 AM 56.0579 -41.4909 239° Southwest  Level Estimated
Fri 10:58:00 AM 55.9975 -41.6718 239° Southwest  Level Estimated
Fri 10:59:00 AM 55.9369 -41.8522 239° Southwest  Level Estimated
Fri 11:00:00 AM 55.8760 -42.0320 239° Southwest  Level Estimated
Fri 11:01:00 AM 55.8148 -42.2113 239° Southwest  Level Estimated
Fri 11:02:00 AM 55.7533 -42.3900 239° Southwest  Level Estimated
Fri 11:03:00 AM 55.6916 -42.5681 238° Southwest  Level Estimated
Fri 11:04:00 AM 55.6297 -42.7457 238° Southwest  Level Estimated
Fri 11:05:00 AM 55.5675 -42.9227 238° Southwest  Level Estimated
Fri 11:05:58 AM 63.1167 -55.0500 237° Southwest 330 380 36,000  Level Gander Center
Fri 11:06:00 AM 55.5050 -43.0992 238° Southwest  Level Estimated
Fri 11:06:58 AM 63.0833 -55.2833 253° West 410 472 36,000  Level Gander Center
Fri 11:07:00 AM 55.4423 -43.2751 238° Southwest  Level Estimated
Fri 11:07:58 AM 63.0167 -55.5167 238° Southwest 420 483 36,000  Level Gander Center
Fri 11:08:00 AM 55.3781 -43.4539 238° Southwest  Level Estimated
Fri 11:08:58 AM 62.9833 -55.7333 251° West 420 483 36,000  Level Gander Center
Fri 11:09:00 AM 55.3136 -43.6321 238° Southwest  Level Estimated
Fri 11:10:00 AM 55.2489 -43.8097 237° Southwest  Level Estimated
Fri 11:10:58 AM 62.9000 -56.1833 248° West 410 472 36,000  Level Gander Center
Fri 11:11:58 AM 62.8333 -56.4167 238° Southwest 420 483 36,000  Level Gander Center
Fri 11:12:58 AM 62.7833 -56.6500 245° Southwest 420 483 36,000  Level Gander Center
Fri 11:13:58 AM 62.7167 -56.8667 236° Southwest 420 483 36,000  Level Gander Center
Fri 11:14:58 AM 62.6667 -57.0667 242° Southwest 410 472 36,000  Level Gander Center
Fri 11:15:58 AM 62.6000 -57.2833 236° Southwest 410 472 36,000  Level Gander Center
Fri 11:16:58 AM 62.5500 -57.5000 243° Southwest 420 483 36,000  Level Gander Center
Fri 11:17:58 AM 62.5000 -57.7333 245° Southwest 420 483 36,000  Level Gander Center
Fri 11:18:58 AM 62.4333 -57.9500 236° Southwest 420 483 36,000  Level Gander Center
Fri 11:21:14 AM 62.3167 -58.4000 241° Southwest 400 460 36,000  Level Gander Center
Fri 11:22:14 AM 62.2500 -58.6167 237° Southwest 420 483 36,000  Level Gander Center
Fri 11:22:58 AM 62.1833 -58.8000 232° Southwest 420 483 36,000  Level Gander Center
Fri 11:23:58 AM 62.1333 -58.9833 240° Southwest 410 472 36,000  Level Gander Center
Fri 11:24:54 AM 62.0833 -59.1833 242° Southwest 420 483 36,000  Level Montreal Center
Fri 11:25:54 AM 62.0167 -59.3333 227° Southwest 420 483 36,000  Level Montreal Center
Fri 11:26:54 AM 61.9500 -59.5500 237° Southwest 410 472 36,000  Level Montreal Center
Fri 11:27:54 AM 61.9000 -59.7333 240° Southwest 410 472 36,000  Level Montreal Center
Fri 11:28:58 AM 61.8333 -60.0167 244° Southwest 410 472 36,000  Level Gander Center
Fri 11:29:54 AM 61.7667 -60.1500 223° Southwest 410 472 36,000  Level Montreal Center
Fri 11:30:54 AM 61.7000 -60.3333 233° Southwest 410 472 36,000  Level Montreal Center
Fri 11:31:54 AM 61.6500 -60.5833 247° West 400 460 36,000  Level Montreal Center
Fri 11:32:54 AM 61.5833 -60.7500 230° Southwest 410 472 36,000  Level Montreal Center
Fri 11:33:54 AM 61.5167 -60.9667 237° Southwest 410 472 36,000  Level Montreal Center
Fri 11:34:54 AM 61.4667 -61.1333 238° Southwest 410 472 36,000  Level Montreal Center
Fri 11:35:58 AM 61.4000 -61.4167 244° Southwest 420 483 36,000  Level Gander Center
Fri 11:36:58 AM 61.3333 -61.6333 237° Southwest 410 472 36,000  Level Gander Center
Fri 11:37:58 AM 61.2833 -61.8000 238° Southwest 420 483 36,000  Level Gander Center
Fri 11:38:58 AM 61.2167 -62.0000 235° Southwest 420 483 36,000  Level Gander Center
Fri 11:39:58 AM 61.1500 -62.1833 233° Southwest 420 483 36,000  Level Gander Center
Fri 11:40:58 AM 61.0833 -62.4167 239° Southwest 410 472 36,000  Level Gander Center
Fri 11:41:58 AM 61.0167 -62.5833 231° Southwest 420 483 36,000  Level Gander Center
Fri 11:42:58 AM 60.9333 -62.7833 229° Southwest 420 483 36,000  Level Gander Center
Fri 11:43:58 AM 60.8667 -63.0167 240° Southwest 420 483 36,000  Level Gander Center
Fri 11:44:58 AM 60.8000 -63.1833 231° Southwest 420 483 36,000  Level Gander Center
Fri 11:45:58 AM 60.7333 -63.3833 236° Southwest 410 472 36,000  Level Gander Center
Fri 11:46:58 AM 60.6667 -63.5833 236° Southwest 410 472 36,000  Level Gander Center
Fri 11:47:58 AM 60.6167 -63.7833 243° Southwest 410 472 36,000  Level Gander Center
Fri 11:48:58 AM 60.5333 -63.9833 230° Southwest 410 472 36,000  Level Gander Center
Fri 11:49:58 AM 60.4667 -64.1500 231° Southwest 410 472 36,000  Level Gander Center
Fri 11:50:58 AM 60.4000 -64.3500 236° Southwest 420 483 36,000  Level Gander Center
Fri 11:51:58 AM 60.3333 -64.5333 234° Southwest 410 472 36,000  Level Gander Center
Fri 11:52:58 AM 60.2500 -64.7000 225° Southwest 410 472 36,000  Level Gander Center
Fri 11:53:58 AM 60.2000 -64.9000 243° Southwest 410 472 36,000  Level Gander Center
Fri 11:54:58 AM 60.1333 -65.0833 234° Southwest 400 460 36,000  Level Gander Center
Fri 11:55:54 AM 60.0500 -65.1667 207° Southwest 400 460 36,000  Level Montreal Center
Fri 11:56:54 AM 59.9667 -65.3333 225° Southwest 400 460 36,000  Level Montreal Center
Fri 11:57:54 AM 59.9000 -65.4833 228° Southwest 400 460 36,000  Level Montreal Center
Fri 11:58:54 AM 59.8000 -65.6167 214° Southwest 400 460 36,000  Level Montreal Center
Fri 11:59:54 AM 59.7167 -65.7833 225° Southwest 400 460 36,000  Level Montreal Center
Fri 12:00:54 PM 59.6333 -65.9000 215° Southwest 400 460 36,000  Level Montreal Center
Fri 12:01:54 PM 59.5500 -66.0667 225° Southwest 400 460 36,000  Level Montreal Center
Fri 12:02:54 PM 59.4833 -66.1833 222° Southwest 400 460 36,000  Level Montreal Center
Fri 12:03:58 PM 59.3667 -66.4167 226° Southwest 400 460 36,000  Level Gander Center
Fri 12:04:58 PM 59.3000 -66.5333 222° Southwest 400 460 36,000  Level Gander Center
Fri 12:05:58 PM 59.2167 -66.6833 223° Southwest 400 460 36,000  Level Gander Center
Fri 12:06:54 PM 59.1333 -66.7667 207° Southwest 400 460 36,000  Level Montreal Center
Fri 12:07:54 PM 59.0333 -66.9000 214° Southwest 400 460 36,000  Level Montreal Center
Fri 12:08:54 PM 58.9667 -67.0500 229° Southwest 400 460 36,000  Level Montreal Center
Fri 12:09:54 PM 58.8667 -67.1667 211° Southwest 400 460 36,000  Level Montreal Center
Fri 12:10:58 PM 58.7833 -67.3667 231° Southwest 400 460 36,000  Level Gander Center
Fri 12:11:54 PM 58.7000 -67.4667 212° Southwest 400 460 36,000  Level Montreal Center
Fri 12:12:58 PM 58.6000 -67.6500 224° Southwest 400 460 36,000  Level Gander Center
Fri 12:13:58 PM 58.5333 -67.8000 230° Southwest 400 460 36,000  Level Gander Center
Fri 12:14:58 PM 58.4333 -67.9167 211° Southwest 400 460 36,000  Level Gander Center
Fri 12:15:58 PM 58.3500 -68.0500 220° Southwest 400 460 36,000  Level Gander Center
Fri 12:16:58 PM 58.2667 -68.2000 223° Southwest 400 460 36,000  Level Gander Center
Fri 12:17:54 PM 58.2000 -68.2667 208° Southwest 410 472 36,000  Level Montreal Center
Fri 12:19:41 PM 58.0333 -68.5333 220° Southwest 420 483 36,000  Level Gander Center
Fri 12:20:41 PM 57.9500 -68.6500 217° Southwest 400 460 36,000  Level Gander Center
Fri 12:21:41 PM 57.8500 -68.7833 215° Southwest 400 460 36,000  Level Gander Center
Fri 12:22:41 PM 57.7667 -68.9167 221° Southwest 400 460 36,000  Level Gander Center
Fri 12:23:41 PM 57.6833 -69.0333 217° Southwest 400 460 36,000  Level Gander Center
Fri 12:24:41 PM 57.5833 -69.1333 208° Southwest 400 460 36,000  Level Gander Center
Fri 12:25:41 PM 57.5000 -69.2667 221° Southwest 400 460 36,000  Level Gander Center
Fri 12:26:41 PM 57.4000 -69.3833 212° Southwest 400 460 36,000  Level Gander Center
Fri 12:27:39 PM 57.3167 -69.4500 203° Southwest 400 460 36,000  Level Montreal Center
Fri 12:28:39 PM 57.2333 -69.5833 221° Southwest 400 460 36,000  Level Montreal Center
Fri 12:29:39 PM 57.1333 -69.7000 212° Southwest 400 460 36,000  Level Montreal Center
Fri 12:30:39 PM 57.0500 -69.8000 213° Southwest 400 460 36,000  Level Montreal Center
Fri 12:31:39 PM 56.9500 -69.9333 216° Southwest 400 460 36,000  Level Montreal Center
Fri 12:32:39 PM 56.8667 -70.0500 217° Southwest 400 460 36,000  Level Montreal Center
Fri 12:33:39 PM 56.7667 -70.1500 209° Southwest 400 460 36,000  Level Montreal Center
Fri 12:34:39 PM 56.6833 -70.2833 221° Southwest 400 460 36,000  Level Montreal Center
Fri 12:35:39 PM 56.6000 -70.4000 218° Southwest 400 460 36,000  Level Montreal Center
Fri 12:36:39 PM 56.5000 -70.5000 209° Southwest 400 460 36,000  Level Montreal Center
Fri 12:37:39 PM 56.4000 -70.6333 216° Southwest 400 460 36,000  Level Montreal Center
Fri 12:38:39 PM 56.3167 -70.7333 214° Southwest 400 460 36,000  Level Montreal Center
Fri 12:39:39 PM 56.2167 -70.8500 213° Southwest 400 460 36,000  Level Montreal Center
Fri 12:40:39 PM 56.1167 -70.9500 209° Southwest 400 460 36,000  Level Montreal Center
Fri 12:41:39 PM 56.0333 -71.0833 222° Southwest 400 460 36,000  Level Montreal Center
Fri 12:42:39 PM 55.9333 -71.1833 209° Southwest 400 460 36,000  Level Montreal Center
Fri 12:43:39 PM 55.8500 -71.3167 222° Southwest 400 460 36,000  Level Montreal Center
Fri 12:44:39 PM 55.7500 -71.4167 209° Southwest 410 472 36,000  Level Montreal Center
Fri 12:45:39 PM 55.6500 -71.5500 217° Southwest 400 460 36,000  Level Montreal Center
Fri 12:46:39 PM 55.5500 -71.6500 210° Southwest 410 472 36,000  Level Montreal Center
Fri 12:47:39 PM 55.4500 -71.7500 210° Southwest 400 460 36,000  Level Montreal Center
Fri 12:48:39 PM 55.3667 -71.8667 219° Southwest 400 460 36,000  Level Montreal Center
Fri 12:49:39 PM 55.2833 -71.9667 214° Southwest 410 472 36,000  Level Montreal Center
Fri 12:50:39 PM 55.1833 -72.0667 210° Southwest 410 472 36,000  Level Montreal Center
Fri 12:51:39 PM 55.0833 -72.2000 217° Southwest 410 472 36,000  Level Montreal Center
Fri 12:52:39 PM 54.9833 -72.3000 210° Southwest 410 472 36,000  Level Montreal Center
Fri 12:53:39 PM 54.8833 -72.4167 214° Southwest 410 472 36,000  Level Montreal Center
Fri 12:54:39 PM 54.7833 -72.5167 210° Southwest 410 472 36,000  Level Montreal Center
Fri 12:55:39 PM 54.6833 -72.6167 210° Southwest 420 483 36,000  Level Montreal Center
Fri 12:56:39 PM 54.6000 -72.7333 219° Southwest 410 472 36,000  Level Montreal Center
Fri 12:57:39 PM 54.5000 -72.8667 218° Southwest 410 472 36,000  Level Montreal Center
Fri 12:58:39 PM 54.4000 -72.9500 206° Southwest 410 472 36,000  Level Montreal Center
Fri 12:59:39 PM 54.3000 -73.0500 210° Southwest 410 472 36,000  Level Montreal Center
Fri 01:00:39 PM 54.2000 -73.1667 214° Southwest 410 472 36,000  Level Montreal Center
Fri 01:01:39 PM 54.1167 -73.2667 215° Southwest 410 472 36,000  Level Montreal Center
Fri 01:02:39 PM 54.0167 -73.3833 214° Southwest 410 472 36,000  Level Montreal Center
Fri 01:03:39 PM 53.9167 -73.4833 211° Southwest 410 472 36,000  Level Montreal Center
Fri 01:04:39 PM 53.8167 -73.5667 206° Southwest 410 472 36,000  Level Montreal Center
Fri 01:05:39 PM 53.7167 -73.6833 215° Southwest 410 472 36,000  Level Montreal Center
Fri 01:06:39 PM 53.6167 -73.7833 211° Southwest 410 472 36,000  Level Montreal Center
Fri 01:07:39 PM 53.5167 -73.8333 197° South 410 472 36,000  Level Montreal Center
Fri 01:08:39 PM 53.4167 -73.9333 211° Southwest 410 472 36,000  Level Montreal Center
Fri 01:09:39 PM 53.3000 -74.0167 203° Southwest 410 472 36,000  Level Montreal Center
Fri 01:10:39 PM 53.2000 -74.1000 207° Southwest 410 472 36,000  Level Montreal Center
Fri 01:11:39 PM 53.1000 -74.2000 211° Southwest 410 472 36,000  Level Montreal Center
Fri 01:12:39 PM 53.0000 -74.2833 207° Southwest 410 472 36,000  Level Montreal Center
Fri 01:13:39 PM 52.9167 -74.3667 211° Southwest 410 472 36,000  Level Montreal Center
Fri 01:14:39 PM 52.8000 -74.4667 207° Southwest 410 472 36,000  Level Montreal Center
Fri 01:15:39 PM 52.7000 -74.5500 207° Southwest 410 472 36,000  Level Montreal Center
Fri 01:16:39 PM 52.5833 -74.6000 195° South 410 472 36,000  Level Montreal Center
Fri 01:17:39 PM 52.5000 -74.7167 220° Southwest 410 472 36,000  Level Montreal Center
Fri 01:18:39 PM 52.3833 -74.7833 199° South 410 472 36,000  Level Montreal Center
Fri 01:19:39 PM 52.2833 -74.8667 207° Southwest 390 449 36,000  Level Montreal Center
Fri 01:20:39 PM 52.1667 -74.9500 204° Southwest 410 472 36,000  Level Montreal Center
Fri 01:21:39 PM 52.0667 -75.0333 207° Southwest 410 472 36,000  Level Montreal Center
Fri 01:22:39 PM 51.9500 -75.1167 204° Southwest 430 495 36,000  Level Montreal Center
Fri 01:23:39 PM 51.8500 -75.2000 207° Southwest 420 483 36,000  Level Montreal Center
Fri 01:24:39 PM 51.7500 -75.2833 207° Southwest 420 483 36,000  Level Montreal Center
Fri 01:25:39 PM 51.6500 -75.3667 207° Southwest 410 472 36,000  Level Montreal Center
Fri 01:26:39 PM 51.5333 -75.4500 204° Southwest 410 472 36,000  Level Montreal Center
Fri 01:27:39 PM 51.4333 -75.5333 207° Southwest 420 483 36,000  Level Montreal Center
Fri 01:28:39 PM 51.3333 -75.5833 197° South 420 483 36,000  Level Montreal Center
Fri 01:29:39 PM 51.2333 -75.6667 208° Southwest 410 472 36,000  Level Montreal Center
Fri 01:30:39 PM 51.1167 -75.7500 204° Southwest 420 483 36,000  Level Montreal Center
Fri 01:31:39 PM 51.0167 -75.8333 208° Southwest 420 483 36,000  Level Montreal Center
Fri 01:32:39 PM 50.9167 -75.9167 208° Southwest 410 472 36,000  Level Montreal Center
Fri 01:33:39 PM 50.8000 -76.0000 204° Southwest 420 483 36,000  Level Montreal Center
Fri 01:34:39 PM 50.7000 -76.0667 203° Southwest 420 483 36,000  Level Montreal Center
Fri 01:35:39 PM 50.6000 -76.1500 208° Southwest 420 483 36,000  Level Montreal Center
Fri 01:36:39 PM 50.4833 -76.2333 204° Southwest 420 483 36,000  Level Montreal Center
Fri 01:37:39 PM 50.3833 -76.3167 208° Southwest 420 483 36,000  Level Montreal Center
Fri 01:38:39 PM 50.2833 -76.3833 203° Southwest 420 483 36,000  Level Montreal Center
Fri 01:39:39 PM 50.1833 -76.4667 208° Southwest 420 483 36,000  Level Montreal Center
Fri 01:40:39 PM 50.0500 -76.5500 202° Southwest 420 483 36,000  Level Montreal Center
Fri 01:41:39 PM 49.9500 -76.6167 203° Southwest 420 483 36,000  Level Montreal Center
Fri 01:42:39 PM 49.8333 -76.7000 205° Southwest 420 483 36,000  Level Montreal Center
Fri 01:43:39 PM 49.7333 -76.7667 203° Southwest 420 483 36,000  Level Montreal Center
Fri 01:44:39 PM 49.6167 -76.8500 205° Southwest 420 483 36,000  Level Montreal Center
Fri 01:45:39 PM 49.5333 -76.9167 207° Southwest 400 460 36,000  Level Montreal Center
Fri 01:46:39 PM 49.4167 -76.9667 196° South 430 495 36,000  Level Montreal Center
Fri 01:47:39 PM 49.3167 -77.0500 209° Southwest 430 495 36,000  Level Montreal Center
Fri 01:49:11 PM 49.1333 -77.1333 197° South 420 483 36,000  Level Toronto Center
Fri 01:50:11 PM 49.0333 -77.2167 209° Southwest 420 483 36,000  Level Toronto Center
Fri 01:51:11 PM 48.9167 -77.2667 196° South 420 483 36,000  Level Toronto Center
Fri 01:52:11 PM 48.8333 -77.3500 213° Southwest 430 495 36,000  Level Toronto Center
Fri 01:53:11 PM 48.7167 -77.4333 205° Southwest 430 495 36,000  Level Toronto Center
Fri 01:54:11 PM 48.6000 -77.4833 196° South 430 495 36,000  Level Toronto Center
Fri 01:55:11 PM 48.5000 -77.5667 209° Southwest 430 495 36,000  Level Toronto Center
Fri 01:56:11 PM 48.3833 -77.6500 205° Southwest 430 495 36,000  Level Toronto Center
Fri 01:57:11 PM 48.2833 -77.7000 198° South 430 495 36,000  Level Toronto Center
Fri 01:58:11 PM 48.1667 -77.7833 205° Southwest 430 495 36,000  Level Toronto Center
Fri 01:59:11 PM 48.0500 -77.8667 206° Southwest 430 495 36,000  Level Toronto Center
Fri 02:00:11 PM 47.9333 -77.9167 196° South 430 495 36,000  Level Toronto Center
Fri 02:01:11 PM 47.8333 -78.0000 209° Southwest 430 495 36,000  Level Toronto Center
Fri 02:02:11 PM 47.7333 -78.0500 199° South 430 495 36,000  Level Toronto Center
Fri 02:03:11 PM 47.6167 -78.1167 201° Southwest 430 495 36,000  Level Toronto Center
Fri 02:04:11 PM 47.5000 -78.1833 201° Southwest 430 495 36,000  Level Toronto Center
Fri 02:05:11 PM 47.3833 -78.2500 201° Southwest 430 495 36,000  Level Toronto Center
Fri 02:06:11 PM 47.2833 -78.3000 199° South 430 495 36,000  Level Toronto Center
Fri 02:07:11 PM 47.1500 -78.3833 203° Southwest 430 495 36,000  Level Toronto Center
Fri 02:08:11 PM 47.0667 -78.4333 202° Southwest 430 495 36,000  Level Toronto Center
Fri 02:09:11 PM 46.9500 -78.4833 196° South 430 495 36,000  Level Toronto Center
Fri 02:10:11 PM 46.8333 -78.5667 206° Southwest 430 495 36,000  Level Toronto Center
Fri 02:11:11 PM 46.7333 -78.6167 199° South 430 495 36,000  Level Toronto Center
Fri 02:12:11 PM 46.6167 -78.6833 201° Southwest 420 483 36,000  Level Toronto Center
Fri 02:13:11 PM 46.5167 -78.7333 199° South 420 483 36,000  Level Toronto Center
Fri 02:14:11 PM 46.4000 -78.8167 206° Southwest 420 483 36,000  Level Toronto Center
Fri 02:15:11 PM 46.2833 -78.8667 196° South 420 483 36,000  Level Toronto Center
Fri 02:16:11 PM 46.1833 -78.9333 205° Southwest 420 483 36,000  Level Toronto Center
Fri 02:17:11 PM 46.0667 -78.9833 197° South 420 483 36,000  Level Toronto Center
Fri 02:18:11 PM 45.9667 -79.0333 199° South 420 483 36,000  Level Toronto Center
Fri 02:19:11 PM 45.8500 -79.1000 202° Southwest 420 483 36,000  Level Toronto Center
Fri 02:25:27 PM 45.1603 -79.4940 202° Southwest 427 491 36,000  Level FlightAware ADS-B (CYKF)
Fri 02:26:00 PM 45.0998 -79.5255 200° South 427 491 36,000  Level FlightAware ADS-B (CYKF)
Fri 02:26:47 PM 45.0130 -79.5708 200° South 426 490 36,000  Level FlightAware ADS-B (CYKF)
Fri 02:27:18 PM 44.9525 -79.6023 200° South 425 489 36,000  Level FlightAware ADS-B
Fri 02:28:10 PM 44.9697 -79.5933 20° North 424 488 36,000  Level FlightAware ADS-B (CYKF)
Fri 02:30:11 PM 44.6388 -79.7640 200° South 423 487 36,000  Level FlightAware ADS-B (CYKF)
Fri 02:31:32 PM 44.5039 -79.8623 207° Southwest 420 483 36,000  Level FlightAware ADS-B (CYKF)
Fri 02:32:07 PM 44.4417 -79.9195 213° Southwest 420 483 36,000  Level FlightAware ADS-B (CYKF)
Fri 02:32:52 PM 44.3690 -79.9851 213° Southwest 421 484 36,000  Level FlightAware ADS-B (CYKF)
Fri 02:33:29 PM 44.3124 -80.0358 213° Southwest 422 486 36,000  Level FlightAware ADS-B (CYKF)
Fri 02:34:10 PM 44.2425 -80.0984 213° Southwest 425 489 36,000  Level FlightAware ADS-B (CYKF)
Fri 02:34:48 PM 44.1784 -80.1557 213° Southwest 425 489 36,000  Level FlightAware ADS-B (CYKF)
Fri 02:35:31 PM 44.1108 -80.2160 213° Southwest 424 488 36,000  Level FlightAware ADS-B (CYKF)
Fri 02:36:11 PM 44.0416 -80.2773 213° Southwest 422 486 36,000  Level FlightAware ADS-B (CYKF)
Fri 02:36:49 PM 43.9781 -80.3333 212° Southwest 422 486 36,000  Level FlightAware ADS-B (CYKF)
Fri 02:37:26 PM 43.9196 -80.3849 212° Southwest 424 488 36,000  Level FlightAware ADS-B (CYKF)
Fri 02:38:07 PM 43.8506 -80.4458 212° Southwest 424 488 36,000  Level FlightAware ADS-B
Fri 02:38:51 PM 43.7768 -80.5106 212° Southwest 424 488 36,000  Level FlightAware ADS-B (CYKF)
Fri 02:39:32 PM 43.7094 -80.5696 212° Southwest 425 489 36,000  Level FlightAware ADS-B (CYKF)
Fri 02:40:09 PM 43.6680 -80.6058 212° Southwest 426 490 36,000  Level FlightAware ADS-B (CYKF)
Fri 02:40:52 PM 43.5770 -80.6851 212° Southwest 427 491 36,000  Level FlightAware ADS-B (CYKF)
Fri 02:41:32 PM 43.5092 -80.7440 212° Southwest 426 490 36,000  Level FlightAware ADS-B (CYKF)
Fri 02:42:10 PM 43.4470 -80.7979 212° Southwest 426 490 36,000  Level FlightAware ADS-B (CYKF)
Fri 02:42:52 PM 43.3764 -80.8589 212° Southwest 426 490 36,000  Level FlightAware ADS-B (CYKF)
Fri 02:43:31 PM 43.3122 -80.9141 212° Southwest 426 490 36,000  Level FlightAware ADS-B
Fri 02:44:02 PM 43.2591 -80.9597 212° Southwest 427 491 36,000  Level FlightAware ADS-B
Fri 02:44:51 PM 43.1776 -81.0297 212° Southwest 426 490 36,000  Level FlightAware ADS-B (CYKF)
Fri 02:45:51 PM 43.0775 -81.1153 212° Southwest 426 490 36,000  Level FlightAware ADS-B (CYKF)
Fri 02:46:32 PM 43.0075 -81.1669 208° Southwest 430 495 36,000  Level FlightAware ADS-B (CYKF)
Fri 02:47:11 PM 42.9356 -81.2114 204° Southwest 431 496 36,000  Level FlightAware ADS-B (CYKF)
Fri 02:47:52 PM 42.8620 -81.2578 205° Southwest 431 496 36,000  Level FlightAware ADS-B (CYKF)
Fri 02:48:31 PM 42.7892 -81.3026 204° Southwest 430 495 36,000  Level FlightAware ADS-B (CYKF)
Fri 02:49:32 PM 42.6825 -81.3681 204° Southwest 428 493 36,000  Level FlightAware ADS-B (CYKF)
Fri 02:50:07 PM 42.6171 -81.4081 204° Southwest 428 493 36,000  Level FlightAware ADS-B (CYKF)
Fri 02:50:52 PM 42.5366 -81.4573 204° Southwest 429 494 36,000  Level FlightAware ADS-B (CYKF)
Fri 02:51:28 PM 42.4942 -81.4832 204° Southwest 430 495 36,000  Level FlightAware ADS-B (CYKF)
Fri 02:52:01 PM 42.4147 -81.5316 204° Southwest 429 494 36,000  Level FlightAware ADS-B (CYKF)
Fri 02:53:11 PM 42.2833 -81.6000 204° Southwest 430 495 36,000  Level Toronto Center
Fri 02:54:28 PM 42.1636 -81.6833 207° Southwest 427 491 36,000  Level Cleveland Center
Fri 02:55:30 PM 42.0350 -81.7617 204° Southwest 430 495 36,000  Level Cleveland Center
Fri 02:56:32 PM 41.9256 -81.8258 204° Southwest 428 493 36,000  Level Cleveland Center
Fri 02:57:34 PM 41.8164 -81.8911 204° Southwest 429 494 36,000  Level Cleveland Center
Fri 02:58:36 PM 41.7061 -81.9564 204° Southwest 432 497 36,000  Level Cleveland Center
Fri 02:59:39 PM 41.5956 -82.0208 204° Southwest 432 497 36,000  Level Cleveland Center
Fri 03:00:41 PM 41.4864 -82.0861 204° Southwest 431 496 36,000  Level Cleveland Center
Fri 03:01:43 PM 41.3594 -82.1583 203° Southwest 427 491 36,000  Level Cleveland Center
Fri 03:02:45 PM 41.2436 -82.2017 196° South 432 497 36,000  Level Cleveland Center
Fri 03:03:47 PM 41.1275 -82.2444 196° South 431 496 36,000  Level Cleveland Center
Fri 03:04:49 PM 41.0108 -82.2850 195° South 432 497 36,000  Level Cleveland Center
Fri 03:05:51 PM 40.8944 -82.3264 195° South 432 497 36,000  Level Cleveland Center
Fri 03:06:55 PM 40.7578 -82.3753 195° South 432 497 36,000  Level Indianapolis Center
Fri 03:07:57 PM 40.6408 -82.4164 195° South 431 496 36,000  Level Indianapolis Center
Fri 03:08:59 PM 40.5258 -82.4575 195° South 428 493 36,000  Level Indianapolis Center
Fri 03:10:01 PM 40.4100 -82.4992 195° South 427 491 36,000  Level Indianapolis Center
Fri 03:15:28 PM 39.7524 -82.6157 195° South 435 501 36,000  Level FlightAware ADS-B
Fri 03:15:59 PM 39.6895 -82.6198 183° South 434 499 36,000  Level FlightAware ADS-B
Fri 03:16:37 PM 39.6123 -82.6250 183° South 432 497 36,000  Level FlightAware ADS-B
Fri 03:17:11 PM 39.5508 -82.6291 183° South 430 495 36,000  Level FlightAware ADS-B
Fri 03:17:47 PM 39.4743 -82.6342 183° South 429 494 36,000  Level FlightAware ADS-B
Fri 03:18:31 PM 39.3873 -82.6401 183° South 429 494 36,000  Level FlightAware ADS-B
Fri 03:19:31 PM 39.2680 -82.6481 183° South 428 493 36,000  Level FlightAware ADS-B
Fri 03:20:16 PM 39.1805 -82.6539 183° South 427 491 36,000  Level FlightAware ADS-B
Fri 03:21:17 PM 39.0606 -82.6579 181° South 435 501 36,000  Level FlightAware ADS-B
Fri 03:21:46 PM 39.0031 -82.6317 161° South 451 519 36,000  Level FlightAware ADS-B
Fri 03:22:31 PM 38.9194 -82.5824 155° Southeast 450 518 36,000  Level FlightAware ADS-B
Fri 03:23:18 PM 38.8363 -82.5331 155° Southeast 452 520 36,000  Level FlightAware ADS-B
Fri 03:24:30 PM 38.7053 -82.4964 155° Southeast 432 497 36,000  Level Indianapolis Center
Fri 03:25:32 PM 38.6000 -82.5461 200° South 415 478 36,000  Level Indianapolis Center
Fri 03:26:34 PM 38.4747 -82.6097 202° Southwest 414 476 36,000  Level Indianapolis Center
Fri 03:27:36 PM 38.3667 -82.6656 202° Southwest 416 479 36,000  Level Indianapolis Center
Fri 03:28:38 PM 38.2575 -82.7211 202° Southwest 420 483 36,000  Level Indianapolis Center
Fri 03:29:40 PM 38.1492 -82.7767 202° Southwest 418 481 36,000  Level Indianapolis Center
Fri 03:30:42 PM 38.0425 -82.8344 203° Southwest 414 476 36,000  Level Indianapolis Center
Fri 03:31:44 PM 37.9183 -82.8958 201° Southwest 411 473 36,000  Level Indianapolis Center
Fri 03:32:46 PM 37.8119 -82.9503 202° Southwest 412 474 36,000  Level Indianapolis Center
Fri 03:33:48 PM 37.7061 -83.0039 202° Southwest 409 471 36,000  Level Indianapolis Center
Fri 03:34:50 PM 37.5886 -83.0147 184° South 419 482 36,000  Level Indianapolis Center
Fri 03:35:52 PM 37.4708 -83.0228 183° South 422 486 36,000  Level Indianapolis Center
Fri 03:36:54 PM 37.3506 -83.0286 182° South 429 494 36,000  Level Indianapolis Center
Fri 03:37:56 PM 37.2142 -83.0406 184° South 428 493 36,000  Level Indianapolis Center
Fri 03:38:59 PM 37.1153 -83.1047 207° Southwest 405 466 36,000  Level Indianapolis Center
Fri 03:40:01 PM 37.0172 -83.1700 208° Southwest 403 464 36,000  Level Indianapolis Center
Fri 03:41:03 PM 36.9197 -83.2342 208° Southwest 400 460 36,000  Level Indianapolis Center
Fri 03:42:05 PM 36.8047 -83.3097 208° Southwest 402 463 36,000  Level Indianapolis Center
Fri 03:43:07 PM 36.7056 -83.3753 208° Southwest 404 465 36,000  Level Indianapolis Center
Fri 03:44:09 PM 36.6050 -83.4414 208° Southwest 406 467 36,000  Level Indianapolis Center
Fri 03:45:11 PM 36.5039 -83.5069 208° Southwest 409 471 36,000 387 Level Indianapolis Center
Fri 03:46:13 PM 36.4047 -83.5725 208° Southwest 408 470 36,800 484 Climbing Indianapolis Center
Fri 03:47:15 PM 36.2839 -83.6514 208° Southwest 408 470 37,000 97 Climbing Indianapolis Center
Fri 03:48:17 PM 36.1825 -83.7169 208° Southwest 411 473 37,000  Level Indianapolis Center
Fri 03:49:19 PM 36.0825 -83.7811 207° Southwest 405 466 37,000  Level Indianapolis Center
Fri 03:50:21 PM 35.9817 -83.8458 207° Southwest 406 467 37,000  Level Indianapolis Center
Fri 03:56:12 PM 35.2944 -84.0427 207° Southwest 410 472 37,000  Level FlightAware ADS-B (KDZJ)
Fri 03:56:50 PM 35.2246 -84.0595 191° South 409 471 37,000  Level FlightAware ADS-B (KDZJ)
Fri 03:57:43 PM 35.1253 -84.0830 191° South 408 470 37,000  Level FlightAware ADS-B (KDZJ)
Fri 03:58:17 PM 35.0635 -84.0981 191° South 407 468 37,000  Level FlightAware ADS-B (KDZJ)
Fri 03:59:04 PM 34.9768 -84.1187 191° South 407 468 37,000  Level FlightAware ADS-B (KDZJ)
Fri 03:59:45 PM 34.9035 -84.1362 191° South 407 468 37,000  Level FlightAware ADS-B (KDZJ)
Fri 04:00:23 PM 34.8309 -84.1533 191° South 407 468 37,000  Level FlightAware ADS-B (KDZJ)
Fri 04:01:00 PM 34.7622 -84.1697 191° South 408 470 37,000  Level FlightAware ADS-B (KDZJ)
Fri 04:01:38 PM 34.6923 -84.1864 191° South 411 473 37,000  Level FlightAware ADS-B (KDZJ)
Fri 04:02:24 PM 34.6063 -84.2068 191° South 411 473 37,000  Level FlightAware ADS-B (KDZJ)
Fri 04:03:00 PM 34.5383 -84.2228 191° South 411 473 37,000  Level FlightAware ADS-B (KDZJ)
Fri 04:03:44 PM 34.4570 -84.2419 191° South 412 474 37,000  Level FlightAware ADS-B (KDZJ)
Fri 04:04:25 PM 34.3800 -84.2600 191° South 412 474 37,000  Level FlightAware ADS-B (KDZJ)
Fri 04:05:04 PM 34.3083 -84.2770 191° South 409 471 37,000  Level FlightAware ADS-B (KDZJ)
Fri 04:05:45 PM 34.2309 -84.2951 191° South 409 471 37,000  Level FlightAware ADS-B (KDZJ)
Fri 04:06:25 PM 34.1560 -84.3126 191° South 409 471 37,000  Level FlightAware ADS-B (KDZJ)
Fri 04:07:06 PM 34.0835 -84.3295 191° South 398 458 37,000  Level FlightAware ADS-B (KDZJ)
Fri 04:07:45 PM 34.0094 -84.3467 191° South 396 456 37,000  Level FlightAware ADS-B (KDZJ)
Fri 04:08:39 PM 33.9378 -84.3644 191° South 413 475 37,000  Level Atlanta Center
Fri 04:09:39 PM 33.8272 -84.3914 191° South 406 467 37,000  Level Atlanta Center
Fri 04:10:39 PM 33.7186 -84.4158 191° South 408 470 37,000  Level Atlanta Center
Fri 04:11:39 PM 33.6036 -84.4378 189° South 408 470 37,000  Level Atlanta Center
Fri 04:12:39 PM 33.5014 -84.4350 179° South 413 475 37,000  Level Atlanta Center
Fri 04:13:39 PM 33.3825 -84.4319 179° South 418 481 37,000  Level Atlanta Center
Fri 04:14:39 PM 33.2675 -84.4314 180° South 418 481 37,000  Level Atlanta Center
Fri 04:15:39 PM 33.1528 -84.4283 179° South 418 481 37,000  Level Atlanta Center
Fri 04:16:39 PM 33.0381 -84.4278 180° South 418 481 37,000  Level Atlanta Center
Fri 04:17:39 PM 32.9108 -84.4222 178° South 418 481 37,000  Level Atlanta Center
Fri 04:18:39 PM 32.7939 -84.4219 180° South 418 481 37,000  Level Atlanta Center
Fri 04:19:39 PM 32.6792 -84.4189 179° South 418 481 37,000  Level Atlanta Center
Fri 04:20:39 PM 32.5683 -84.4136 178° South 418 481 37,000  Level Atlanta Center
Fri 04:21:39 PM 32.4536 -84.4131 180° South 418 481 37,000  Level Atlanta Center
Fri 04:22:39 PM 32.3431 -84.4100 179° South 413 475 37,000  Level Atlanta Center
Fri 04:23:39 PM 32.2303 -84.4097 180° South 413 475 37,000  Level Atlanta Center
Fri 04:24:39 PM 32.1197 -84.4067 179° South 408 470 37,000  Level Atlanta Center
Fri 04:25:39 PM 32.0092 -84.4039 179° South 401 461 37,000  Level Atlanta Center
Fri 04:26:39 PM 31.9006 -84.4008 179° South 401 461 37,000  Level Atlanta Center
Fri 04:29:22 PM 31.6189 -84.3956 179° South 395 455 37,000  Level Jacksonville Center
Fri 04:35:33 PM 30.9598 -84.3818 179° South 374 430 37,000  Level FlightAware ADS-B (KONZ)
Fri 04:36:12 PM 30.8956 -84.3805 179° South 374 430 37,000  Level FlightAware ADS-B (KONZ)
Fri 04:37:05 PM 30.7962 -84.3787 179° South 377 434 37,000  Level FlightAware ADS-B (KONZ)
Fri 04:37:42 PM 30.7309 -84.3774 179° South 378 435 37,000  Level FlightAware ADS-B (KONZ)
Fri 04:38:12 PM 30.6782 -84.3761 179° South 379 436 37,000  Level FlightAware ADS-B (KONZ)
Fri 04:38:42 PM 30.6257 -84.3706 175° South 392 451 37,000  Level FlightAware ADS-B (KONZ)
Fri 04:39:23 PM 30.5685 -84.3574 169° South 410 472 37,000  Level FlightAware ADS-B (KONZ)
Fri 04:39:54 PM 30.4935 -84.3281 161° South 427 491 37,000  Level FlightAware ADS-B (KONZ)
Fri 04:40:33 PM 30.4242 -84.2873 153° Southeast 445 512 37,000  Level FlightAware ADS-B (KONZ)
Fri 04:41:40 PM 30.3058 -84.2097 150° Southeast 445 512 37,000 220 Level FlightAware ADS-B (KONZ)
Fri 04:42:22 PM 30.2291 -84.1597 151° Southeast 445 512 37,400 878 Climbing FlightAware ADS-B (KONZ)
Fri 04:43:02 PM 30.1565 -84.1124 151° Southeast 448 516 38,200 1,063 Climbing FlightAware ADS-B (KONZ)
Fri 04:43:41 PM 30.0897 -84.0691 151° Southeast 452 520 38,800 593 Climbing FlightAware ADS-B (KONZ)
Fri 04:44:23 PM 30.0144 -84.0199 150° Southeast 447 514 39,000 103 Climbing FlightAware ADS-B (KONZ)
Fri 04:45:37 PM 29.8835 -83.9348 151° Southeast 434 499 39,000  Level FlightAware ADS-B (KONZ)
Fri 04:46:22 PM 29.8075 -83.8883 151° Southeast 441 507 39,000  Level Jacksonville Center
Fri 04:47:22 PM 29.7017 -83.8178 150° Southeast 436 502 39,000  Level Jacksonville Center
Fri 04:48:22 PM 29.5933 -83.7500 151° Southeast 436 502 39,000  Level Jacksonville Center
Fri 04:49:22 PM 29.4894 -83.6822 150° Southeast 436 502 39,000  Level Jacksonville Center
Fri 04:50:22 PM 29.3814 -83.6122 151° Southeast 436 502 39,000  Level Jacksonville Center
Fri 04:51:22 PM 29.2733 -83.5425 151° Southeast 441 507 39,000  Level Jacksonville Center
Fri 04:57:11 PM 28.6399 -83.1413 151° Southeast 442 509 39,000  Level FlightAware ADS-B
Fri 04:57:48 PM 28.5737 -83.0998 151° Southeast 444 511 39,000  Level FlightAware ADS-B
Fri 04:59:14 PM 28.4180 -83.0021 151° Southeast 446 513 39,000  Level FlightAware ADS-B
Fri 04:59:59 PM 28.3376 -82.9518 151° Southeast 448 516 39,000  Level FlightAware ADS-B
Fri 05:00:32 PM 28.2764 -82.9136 151° Southeast 449 517 39,000  Level FlightAware ADS-B
Fri 05:01:13 PM 28.2014 -82.8668 151° Southeast 449 517 39,000  Level FlightAware ADS-B
Fri 05:02:35 PM 28.0537 -82.7748 151° Southeast 448 516 39,000  Level FlightAware ADS-B
Fri 05:03:13 PM 27.9883 -82.7341 151° Southeast 448 516 39,000  Level FlightAware ADS-B
Fri 05:03:51 PM 27.9223 -82.6932 151° Southeast 448 516 39,000  Level FlightAware ADS-B
Fri 05:04:32 PM 27.8400 -82.6401 150° Southeast 455 524 39,000  Level FlightAware ADS-B
Fri 05:05:15 PM 27.7628 -82.5878 149° Southeast 454 522 39,000  Level FlightAware ADS-B
Fri 05:05:34 PM 27.7314 -82.5729 157° South 423 487 39,000  Level FlightAware ADS-B
Fri 05:05:55 PM 27.6891 -82.5651 171° South 395 455 39,000  Level FlightAware ADS-B
Fri 05:08:36 PM 27.3978 -82.5613 179° South 393 452 39,000  Level FlightAware ADS-B
Fri 05:10:09 PM 27.2278 -82.5592 179° South 394 453 39,000  Level FlightAware ADS-B
Fri 05:10:56 PM 27.1415 -82.5580 179° South 392 451 39,000  Level FlightAware ADS-B
Fri 05:11:33 PM 27.0837 -82.5571 179° South 390 449 39,000  Level FlightAware ADS-B
Fri 05:12:05 PM 27.0162 -82.5564 179° South 390 449 39,000  Level FlightAware ADS-B
Fri 05:13:02 PM 26.9141 -82.5552 179° South 392 451 39,000  Level FlightAware ADS-B
Fri 05:14:36 PM 26.7411 -82.5530 179° South 396 456 39,000  Level FlightAware ADS-B
Fri 05:15:15 PM 26.6698 -82.5521 179° South 397 457 39,000  Level FlightAware ADS-B
Fri 05:15:56 PM 26.5978 -82.5511 179° South 398 458 39,000  Level FlightAware ADS-B
Fri 05:16:36 PM 26.5210 -82.5502 179° South 399 459 39,000  Level FlightAware ADS-B
Fri 05:17:15 PM 26.4502 -82.5492 179° South 401 461 39,000  Level FlightAware ADS-B
Fri 05:17:55 PM 26.3737 -82.5483 179° South 402 463 39,000  Level FlightAware ADS-B
Fri 05:18:54 PM 26.2637 -82.5468 179° South 401 461 39,000  Level FlightAware ADS-B
Fri 05:19:56 PM 26.1485 -82.5452 179° South 400 460 39,000  Level FlightAware ADS-B
Fri 05:20:56 PM 26.0380 -82.5440 179° South 399 459 39,000  Level FlightAware ADS-B
Fri 05:21:36 PM 25.9638 -82.5431 179° South 399 459 39,000  Level FlightAware ADS-B
Fri 05:22:16 PM 25.9232 -82.5426 179° South 400 460 39,000  Level FlightAware ADS-B
Fri 05:22:57 PM 25.8142 -82.5412 179° South 404 465 39,000  Level FlightAware ADS-B
Fri 05:23:37 PM 25.7397 -82.5403 179° South 406 467 39,000  Level FlightAware ADS-B
Fri 05:24:17 PM 25.6636 -82.5394 179° South 408 470 39,000  Level FlightAware ADS-B
Fri 05:24:56 PM 25.5893 -82.5384 179° South 409 471 39,000  Level FlightAware ADS-B
Fri 05:25:36 PM 25.5164 -82.5374 179° South 410 472 39,000  Level FlightAware ADS-B
Fri 05:26:10 PM 25.4669 -82.5400 179° South 404 465 39,000  Level Miami Center
Fri 05:27:10 PM 25.3542 -82.5394 180° South 404 465 39,000  Level Miami Center
Fri 05:28:10 PM 25.2394 -82.5386 180° South 404 465 39,000 -250 Level Miami Center
Fri 05:29:10 PM 25.1247 -82.5356 179° South 404 465 38,500 -750 Descending Miami Center
Fri 05:30:10 PM 25.0081 -82.5325 179° South 415 478 37,500 -1,000 Descending Miami Center
Fri 05:31:10 PM 24.8911 -82.5339 181° South 420 483 36,500 -1,000 Descending Miami Center
Fri 05:32:10 PM 24.7742 -82.5308 179° South 420 483 35,500 -1,250 Descending Miami Center
Fri 05:33:10 PM 24.6594 -82.5325 181° South 420 483 34,000 -1,750 Descending Miami Center
Fri 05:34:10 PM 24.5469 -82.5272 178° South 420 483 32,000 -2,000 Descending Miami Center
Fri 05:35:10 PM 24.4383 -82.5269 180° South 406 467 30,000 -1,950 Descending Miami Center
Fri 05:36:10 PM 24.3297 -82.5242 179° South 393 452 28,100 -1,950 Descending Miami Center
Fri 05:37:10 PM 24.2294 -82.5267 181° South 388 447 26,100 -1,900 Descending Miami Center
Fri 05:38:10 PM 24.1231 -82.5239 179° South 380 437 24,300 -1,800 Descending Miami Center
Fri 05:39:10 PM 24.0231 -82.5242 180° South 380 437 22,500 -1,800 Descending Miami Center
Fri 05:40:10 PM 23.9289 -82.5289 183° South 362 417 20,700 -1,800 Descending Miami Center
Fri 05:42:00 PM 23.7142 -82.4781 175° South  Level FlightAware Approximate
Fri 05:49:00 PM 22.9891 -82.4091 180° South  Level Estimated
Fri 05:50:00 PM 22.9891 -82.4091 180° South  Level Estimated
Fri 05:51:00 PM 22.9891 -82.4091 180° South  Level Estimated
Fri 05:52:00 PM 22.9891 -82.4091 180° South  Level Estimated
Fri 05:53:00 PM 22.9891 -82.4091 180° South  Level Estimated
Fri 05:54:00 PM 22.9891 -82.4091 180° South  Level Estimated
Fri 05:55:00 PM 22.9891 -82.4091 180° South  Level Estimated
Fri 05:56:00 PM 22.9891 -82.4091 180° South  Level Estimated
Fri 05:57:00 PM 22.9891 -82.4091 180° South  Level Estimated
Fri 05:58:00 PM 22.9891 -82.4091 180° South  Level Estimated
Fri 05:59:00 PM 22.9891 -82.4091 180° South  Level Estimated
Fri 06:00:00 PM 22.9891 -82.4091 180° South  Level Estimated
Fri 06:01:00 PM 22.9891 -82.4091 180° South  Level Estimated
Fri 06:02:00 PM 22.9891 -82.4091 180° South  Level Estimated
Fri 06:03:00 PM 22.9891 -82.4091 180° South  Level Estimated
Fri 06:04:00 PM 22.9891 -82.4091 180° South  Level Estimated
Fri 06:05:00 PM 22.9891 -82.4091 180° South  Level Estimated
Fri 06:06:00 PM 22.9891 -82.4091 180° South  Level Estimated
Fri 06:07:00 PM 22.9891 -82.4091 180° South  Level Estimated
Fri 06:08:00 PM 22.9891 -82.4091 180° South  Level Estimated
Fri 06:09:00 PM 22.9891 -82.4091 180° South  Level Estimated

Login

Don't have an account? Register now (free) for customized features, flight alerts, and more!